TAF KROG
KROG 090520Z 0906/1006 14007KT P6SM SKC TEMPO 0912/0916 BKN015 FM092000 21010KT P6SM BKN250 FM100000 VRB03KT P6SM BKN250=
METAR KROG
WC KROG
WS KROG
WV KROG